createdAt,value
2023-06-19T00:02:51.848Z,5.43
2023-06-19T00:05:20.456Z,5.10
2023-06-19T00:07:48.821Z,5.22
2023-06-19T00:12:48.378Z,5.13
2023-06-19T00:15:17.031Z,5.28
2023-06-19T00:17:45.359Z,5.25
2023-06-19T00:20:14.780Z,5.43
2023-06-19T00:22:43.117Z,5.00
2023-06-19T00:27:41.380Z,4.70
2023-06-19T00:30:11.000Z,5.32
2023-06-19T00:32:47.656Z,5.45
2023-06-19T00:35:17.251Z,5.38
2023-06-19T00:37:46.859Z,5.03
2023-06-19T00:40:29.431Z,5.28
2023-06-19T00:42:59.677Z,5.78
2023-06-19T00:45:29.058Z,5.53
2023-06-19T00:47:59.042Z,5.75
2023-06-19T00:50:30.284Z,5.72
2023-06-19T00:52:58.763Z,5.78
2023-06-19T00:55:30.670Z,5.82
2023-06-19T00:58:01.621Z,5.38
2023-06-19T01:00:29.881Z,5.82
2023-06-19T01:02:58.215Z,6.47
2023-06-19T01:08:03.617Z,5.07
2023-06-19T01:10:36.103Z,5.72
2023-06-19T01:13:17.556Z,5.28
2023-06-19T01:15:46.932Z,5.47
2023-06-19T01:18:15.954Z,5.57
2023-06-19T01:20:44.416Z,5.60
2023-06-19T01:23:14.237Z,5.90
2023-06-19T01:25:42.481Z,5.85
2023-06-19T01:28:13.287Z,5.75
2023-06-19T01:30:45.107Z,6.03
2023-06-19T01:33:20.603Z,5.28
2023-06-19T01:35:50.993Z,5.88
2023-06-19T01:38:22.848Z,5.82
2023-06-19T01:40:51.898Z,5.70
2023-06-19T01:43:20.907Z,5.85
2023-06-19T01:45:49.456Z,5.82
2023-06-19T01:48:17.828Z,5.20
2023-06-19T01:53:16.176Z,5.38
2023-06-19T01:55:45.985Z,5.68
2023-06-19T01:58:14.328Z,5.65
2023-06-19T02:03:10.692Z,5.90
2023-06-19T02:05:43.213Z,5.60
2023-06-19T02:08:11.519Z,5.38
2023-06-19T02:10:39.925Z,6.18
2023-06-19T02:15:37.547Z,5.80
2023-06-19T02:18:06.792Z,5.80
2023-06-19T02:20:37.392Z,5.15
2023-06-19T02:23:05.660Z,5.25
2023-06-19T02:25:34.795Z,5.32
2023-06-19T02:28:04.633Z,5.70
2023-06-19T02:30:37.071Z,5.57
2023-06-19T02:33:06.194Z,5.35
2023-06-19T02:35:34.505Z,5.63
2023-06-19T02:40:33.243Z,5.30
2023-06-19T02:43:01.647Z,5.82
2023-06-19T02:45:30.007Z,5.80
2023-06-19T02:47:59.758Z,5.53
2023-06-19T02:50:27.803Z,5.43
2023-06-19T02:52:56.024Z,5.32
2023-06-19T02:55:24.127Z,5.18
2023-06-19T02:57:52.359Z,5.50
2023-06-19T03:00:21.069Z,5.82
2023-06-19T03:02:50.015Z,5.53
2023-06-19T03:05:19.677Z,5.50
2023-06-19T03:07:47.791Z,5.40
2023-06-19T03:10:15.926Z,6.00
2023-06-19T03:12:44.054Z,5.38
2023-06-19T03:15:12.801Z,5.22
2023-06-19T03:17:40.939Z,5.25
2023-06-19T03:20:13.182Z,5.68
2023-06-19T03:22:44.442Z,5.40
2023-06-19T03:25:12.529Z,5.22
2023-06-19T03:27:40.741Z,5.68
2023-06-19T03:30:09.390Z,4.85
2023-06-19T03:32:37.564Z,5.50
2023-06-19T03:35:06.773Z,5.03
2023-06-19T03:37:34.784Z,4.85
2023-06-19T03:40:05.797Z,5.25
2023-06-19T03:42:33.775Z,5.18
2023-06-19T03:45:01.784Z,5.43
2023-06-19T03:47:29.835Z,5.00
2023-06-19T03:50:07.799Z,4.90
2023-06-19T03:52:47.717Z,5.15
2023-06-19T03:57:44.843Z,5.43
2023-06-19T04:00:14.238Z,5.20
2023-06-19T04:02:42.386Z,5.53
2023-06-19T04:05:10.657Z,6.20
2023-06-19T04:07:38.614Z,5.32
2023-06-19T04:10:07.808Z,5.90
2023-06-19T04:12:37.165Z,5.28
2023-06-19T04:15:05.676Z,5.30
2023-06-19T04:17:33.788Z,5.28
2023-06-19T04:20:01.955Z,5.45
2023-06-19T04:22:29.928Z,5.15
2023-06-19T04:24:57.933Z,5.50
2023-06-19T04:27:25.934Z,5.07
2023-06-19T04:29:55.577Z,4.70
2023-06-19T04:32:23.712Z,5.03
2023-06-19T04:34:51.698Z,5.70
2023-06-19T04:37:20.403Z,5.30
2023-06-19T04:39:48.565Z,5.60
2023-06-19T04:42:20.658Z,6.07
2023-06-19T04:44:49.125Z,5.45
2023-06-19T04:47:20.002Z,5.60
2023-06-19T04:49:48.019Z,5.80
2023-06-19T04:52:16.341Z,5.70
2023-06-19T04:57:12.178Z,5.60
2023-06-19T04:59:40.119Z,5.95
2023-06-19T05:02:08.623Z,6.00
2023-06-19T05:04:37.994Z,5.72
2023-06-19T05:07:07.337Z,5.72
2023-06-19T05:09:35.313Z,5.35
2023-06-19T05:12:03.345Z,6.28
2023-06-19T05:14:31.320Z,5.72
2023-06-19T05:16:59.412Z,6.47
2023-06-19T05:19:27.445Z,5.82
2023-06-19T05:21:57.369Z,5.72
2023-06-19T05:24:25.433Z,5.68
2023-06-19T05:26:53.600Z,6.38
2023-06-19T05:29:21.583Z,6.50
2023-06-19T05:31:49.567Z,6.50
2023-06-19T05:34:17.586Z,6.97
2023-06-19T05:36:48.167Z,6.45
2023-06-19T05:39:20.310Z,6.13
2023-06-19T05:41:51.300Z,6.80
2023-06-19T05:44:20.247Z,6.53
2023-06-19T05:46:48.404Z,5.75
2023-06-19T05:49:16.476Z,6.47
2023-06-19T05:51:44.831Z,6.47
2023-06-19T05:56:42.363Z,5.68
2023-06-19T05:59:10.297Z,7.07
2023-06-19T06:01:38.463Z,6.10
2023-06-19T06:04:06.615Z,6.55
2023-06-19T06:06:35.704Z,6.43
2023-06-19T06:09:03.772Z,6.75
2023-06-19T06:11:31.837Z,6.47
2023-06-19T06:14:01.182Z,6.45
2023-06-19T06:16:29.464Z,7.10
2023-06-19T06:21:25.501Z,5.88
2023-06-19T06:23:53.477Z,6.43
2023-06-19T06:26:21.458Z,6.47
2023-06-19T06:28:52.126Z,6.82
2023-06-19T06:31:21.609Z,6.70
2023-06-19T06:33:51.919Z,6.78
2023-06-19T06:36:33.688Z,6.78
2023-06-19T06:39:04.751Z,6.63
2023-06-19T06:41:32.781Z,6.93
2023-06-19T06:44:03.701Z,6.28
2023-06-19T06:46:35.437Z,7.03
2023-06-19T06:49:03.418Z,7.63
2023-06-19T06:51:31.429Z,7.38
2023-06-19T06:53:59.859Z,7.13
2023-06-19T06:56:27.821Z,7.38
2023-06-19T06:58:55.802Z,6.82
2023-06-19T07:01:23.952Z,7.00
2023-06-19T07:03:54.192Z,6.13
2023-06-19T07:06:23.616Z,7.07
2023-06-19T07:08:51.665Z,6.65
2023-06-19T07:11:19.692Z,7.05
2023-06-19T07:13:47.925Z,7.30
2023-06-19T07:16:16.079Z,7.28
2023-06-19T07:18:44.140Z,6.55
2023-06-19T07:21:14.879Z,7.05
2023-06-19T07:23:43.581Z,6.68
2023-06-19T07:26:12.163Z,6.50
2023-06-19T07:28:40.234Z,6.90
2023-06-19T07:31:08.248Z,6.53
2023-06-19T07:33:36.864Z,6.65
2023-06-19T07:36:05.163Z,6.35
2023-06-19T07:41:02.537Z,6.13
2023-06-19T07:43:30.914Z,6.25
2023-06-19T07:45:58.927Z,6.03
2023-06-19T07:48:27.305Z,6.47
2023-06-19T07:50:56.143Z,6.45
2023-06-19T07:53:24.262Z,6.82
2023-06-19T07:55:53.671Z,6.43
2023-06-19T07:58:21.784Z,7.15
2023-06-19T08:00:50.098Z,6.45
2023-06-19T08:05:46.631Z,6.28
2023-06-19T08:08:16.200Z,6.18
2023-06-19T08:10:44.829Z,6.88
2023-06-19T08:13:15.138Z,6.35
2023-06-19T08:15:43.878Z,6.93
2023-06-19T08:18:14.016Z,6.57
2023-06-19T08:20:42.236Z,6.97
2023-06-19T08:23:10.255Z,6.90
2023-06-19T08:25:38.294Z,6.60
2023-06-19T08:28:07.651Z,5.78
2023-06-19T08:30:37.125Z,6.00
2023-06-19T08:33:05.310Z,6.82
2023-06-19T08:35:33.462Z,6.47
2023-06-19T08:38:01.455Z,6.40
2023-06-19T08:40:29.478Z,5.85
2023-06-19T08:42:58.007Z,5.68
2023-06-19T08:45:28.983Z,5.80
2023-06-19T08:48:02.017Z,5.47
2023-06-19T08:50:30.046Z,5.22
2023-06-19T08:52:58.628Z,5.35
2023-06-19T08:55:30.341Z,5.38
2023-06-19T08:57:58.391Z,5.45
2023-06-19T09:00:27.948Z,5.68
2023-06-19T09:03:12.298Z,5.55
2023-06-19T09:05:47.685Z,5.38
2023-06-19T09:08:16.949Z,5.38
2023-06-19T09:10:45.281Z,5.00
2023-06-19T09:15:41.065Z,6.22
2023-06-19T09:18:12.556Z,6.18
2023-06-19T09:20:45.615Z,6.68
2023-06-19T09:23:15.532Z,6.88
2023-06-19T09:25:48.378Z,6.82
2023-06-19T09:28:22.387Z,6.47
2023-06-19T09:30:58.085Z,7.13
2023-06-19T09:33:29.611Z,8.30
2023-06-19T09:35:59.286Z,8.27
2023-06-19T09:38:32.304Z,8.90
2023-06-19T09:41:03.573Z,8.55
2023-06-19T09:43:38.109Z,9.65
2023-06-19T09:46:07.520Z,9.40
2023-06-19T09:48:41.577Z,9.50
2023-06-19T09:51:14.548Z,9.90
2023-06-19T09:53:42.836Z,9.27
2023-06-19T09:58:40.333Z,9.73
2023-06-19T10:01:08.781Z,10.52
2023-06-19T10:03:39.244Z,10.32
2023-06-19T10:06:07.566Z,10.30
2023-06-19T10:11:09.802Z,9.95
2023-06-19T10:13:40.171Z,10.07
2023-06-19T10:16:08.451Z,11.07
2023-06-19T10:21:18.967Z,10.57
2023-06-19T10:23:55.666Z,11.32
2023-06-19T10:26:34.975Z,11.98
2023-06-19T10:29:03.831Z,10.57
2023-06-19T10:31:31.867Z,11.10
2023-06-19T10:34:01.365Z,11.90
2023-06-19T10:36:29.349Z,11.43
2023-06-19T10:38:57.436Z,11.55
2023-06-19T10:41:27.253Z,11.82
2023-06-19T10:43:56.692Z,12.40
2023-06-19T10:46:26.186Z,11.27
2023-06-19T10:48:57.767Z,11.82
2023-06-19T10:51:27.289Z,11.27
2023-06-19T10:53:56.485Z,10.40
2023-06-19T10:56:25.565Z,11.23
2023-06-19T10:58:59.600Z,10.60
2023-06-19T11:01:35.349Z,11.00
2023-06-19T11:04:05.554Z,11.00
2023-06-19T11:06:38.075Z,10.45
2023-06-19T11:09:06.457Z,11.63
2023-06-19T11:11:41.818Z,11.77
2023-06-19T11:14:11.990Z,11.00
2023-06-19T11:16:41.571Z,11.50
2023-06-19T11:19:10.428Z,12.15
2023-06-19T11:21:40.362Z,9.63
2023-06-19T11:24:16.433Z,10.10
2023-06-19T11:26:50.612Z,9.63
2023-06-19T11:29:20.566Z,9.27
2023-06-19T11:31:49.218Z,8.98
2023-06-19T11:34:17.883Z,9.18
2023-06-19T11:36:47.301Z,9.90
2023-06-19T11:39:18.285Z,8.63
2023-06-19T11:41:49.863Z,8.38
2023-06-19T11:44:18.293Z,7.20
2023-06-19T11:46:46.318Z,8.10
2023-06-19T11:49:15.410Z,7.65
2023-06-19T11:51:43.474Z,7.75
2023-06-19T11:54:16.964Z,7.70
2023-06-19T11:56:45.068Z,8.13
2023-06-19T11:59:13.139Z,8.43
2023-06-19T12:01:41.132Z,8.23
2023-06-19T12:04:09.431Z,8.73
2023-06-19T12:06:38.494Z,8.43
2023-06-19T12:09:07.183Z,7.95
2023-06-19T12:11:37.059Z,8.82
2023-06-19T12:14:05.028Z,8.63
2023-06-19T12:16:33.174Z,9.18
2023-06-19T12:19:01.200Z,8.68
2023-06-19T12:21:35.543Z,9.07
2023-06-19T12:24:07.951Z,8.70
2023-06-19T12:26:38.734Z,8.93
2023-06-19T12:29:07.918Z,9.13
2023-06-19T12:31:37.252Z,8.68
2023-06-19T12:34:13.929Z,8.52
2023-06-19T12:36:49.025Z,9.50
2023-06-19T12:41:49.805Z,8.48
2023-06-19T12:44:17.975Z,8.68
2023-06-19T12:49:14.132Z,8.48
2023-06-19T12:51:42.113Z,9.10
2023-06-19T12:54:11.243Z,8.63
2023-06-19T12:56:39.231Z,8.93
2023-06-19T12:59:08.563Z,8.68
2023-06-19T13:01:39.086Z,8.60
2023-06-19T13:04:07.308Z,8.35
2023-06-19T13:06:35.605Z,8.45
2023-06-19T13:11:35.504Z,7.40
2023-06-19T13:14:03.673Z,7.50
2023-06-19T13:19:15.454Z,8.48
2023-06-19T13:21:43.922Z,8.07
2023-06-19T13:24:12.765Z,8.57
2023-06-19T13:26:40.903Z,7.40
2023-06-19T13:29:08.910Z,7.53
2023-06-19T13:31:38.211Z,8.10
2023-06-19T13:34:06.362Z,7.57
2023-06-19T13:36:34.371Z,7.82
2023-06-19T13:39:02.558Z,8.07
2023-06-19T13:41:32.417Z,7.90
2023-06-19T13:44:01.076Z,8.40
2023-06-19T13:46:29.532Z,8.38
2023-06-19T13:48:59.001Z,8.65
2023-06-19T13:51:27.479Z,8.50
2023-06-19T13:53:55.683Z,8.40
2023-06-19T13:56:28.487Z,8.35
2023-06-19T13:58:56.502Z,7.85
2023-06-19T14:01:26.621Z,7.63
2023-06-19T14:03:54.721Z,8.18
2023-06-19T14:06:24.286Z,8.13
2023-06-19T14:08:52.320Z,7.82
2023-06-19T14:11:21.021Z,8.13
2023-06-19T14:13:49.053Z,8.52
2023-06-19T14:16:17.294Z,8.02
2023-06-19T14:18:45.303Z,8.57
2023-06-19T14:21:13.229Z,8.48
2023-06-19T14:23:44.613Z,8.77
2023-06-19T14:26:14.629Z,8.55
2023-06-19T14:28:42.732Z,8.95
2023-06-19T14:31:10.689Z,9.15
2023-06-19T14:33:39.186Z,8.95
2023-06-19T14:36:07.560Z,9.30
2023-06-19T14:38:35.700Z,9.52
2023-06-19T14:43:34.839Z,7.88
2023-06-19T14:46:04.823Z,9.02
2023-06-19T14:48:32.902Z,8.43
2023-06-19T14:53:28.915Z,9.02
2023-06-19T14:55:56.893Z,8.75
2023-06-19T14:58:29.754Z,8.10
2023-06-19T15:00:59.123Z,8.55
2023-06-19T15:03:27.289Z,8.48
2023-06-19T15:08:25.192Z,8.50
2023-06-19T15:10:53.462Z,7.30
2023-06-19T15:13:21.452Z,8.48
2023-06-19T15:15:52.018Z,8.10
2023-06-19T15:18:20.275Z,8.55
2023-06-19T15:20:48.438Z,8.18
2023-06-19T15:23:16.440Z,8.05
2023-06-19T15:25:44.442Z,7.55
2023-06-19T15:28:12.992Z,8.30
2023-06-19T15:30:41.005Z,7.70
2023-06-19T15:33:10.663Z,7.40
2023-06-19T15:35:38.704Z,7.63
2023-06-19T15:38:08.636Z,7.90
2023-06-19T15:40:36.603Z,7.70
2023-06-19T15:43:04.598Z,6.82
2023-06-19T15:45:32.540Z,7.32
2023-06-19T15:48:00.581Z,7.35
2023-06-19T15:52:57.737Z,7.00
2023-06-19T15:55:25.785Z,7.68
2023-06-19T15:57:53.745Z,6.97
2023-06-19T16:00:23.982Z,7.18
2023-06-19T16:02:52.283Z,7.53
2023-06-19T16:07:55.548Z,6.80
2023-06-19T16:10:23.840Z,6.88
2023-06-19T16:12:52.069Z,6.78
2023-06-19T16:15:25.282Z,7.65
2023-06-19T16:17:57.472Z,8.13
2023-06-19T16:20:28.480Z,7.13
2023-06-19T16:22:57.960Z,7.28
2023-06-19T16:25:26.041Z,6.88
2023-06-19T16:27:54.065Z,7.80
2023-06-19T16:30:22.286Z,8.13
2023-06-19T16:32:50.467Z,7.15
2023-06-19T16:37:54.600Z,7.63
2023-06-19T16:40:26.190Z,7.80
2023-06-19T16:42:55.332Z,7.53
2023-06-19T16:45:27.609Z,7.47
2023-06-19T16:47:56.064Z,7.50
2023-06-19T16:50:24.764Z,8.23
2023-06-19T16:52:53.039Z,8.30
2023-06-19T16:55:23.703Z,7.70
2023-06-19T16:57:53.143Z,8.27
2023-06-19T17:00:21.552Z,8.57
2023-06-19T17:02:56.983Z,8.52
2023-06-19T17:05:26.108Z,8.35
2023-06-19T17:07:54.153Z,8.00
2023-06-19T17:10:24.127Z,8.25
2023-06-19T17:12:55.775Z,8.32
2023-06-19T17:15:23.768Z,8.10
2023-06-19T17:17:51.789Z,8.07
2023-06-19T17:22:48.133Z,7.55
2023-06-19T17:25:16.183Z,7.97
2023-06-19T17:27:44.448Z,8.40
2023-06-19T17:30:15.922Z,8.07
2023-06-19T17:32:45.153Z,7.85
2023-06-19T17:35:17.192Z,7.97
2023-06-19T17:37:45.536Z,8.35
2023-06-19T17:40:22.225Z,8.75
2023-06-19T17:42:51.790Z,7.90
2023-06-19T17:45:22.608Z,8.77
2023-06-19T17:47:51.298Z,7.70
2023-06-19T17:50:19.371Z,7.80
2023-06-19T17:52:50.517Z,8.02
2023-06-19T17:55:18.544Z,8.00
2023-06-19T17:57:46.602Z,7.53
2023-06-19T18:00:15.532Z,7.72
2023-06-19T18:02:44.948Z,6.85
2023-06-19T18:05:12.934Z,7.28
2023-06-19T18:07:40.944Z,7.78
2023-06-19T18:10:12.319Z,7.78
2023-06-19T18:12:43.854Z,7.72
2023-06-19T18:15:12.822Z,6.97
2023-06-19T18:17:40.811Z,7.45
2023-06-19T18:20:19.907Z,7.47
2023-06-19T18:22:47.908Z,7.43
2023-06-19T18:25:16.342Z,7.70
2023-06-19T18:27:44.603Z,7.55
2023-06-19T18:32:40.851Z,7.43
2023-06-19T18:35:10.860Z,7.28
2023-06-19T18:37:38.847Z,7.30
2023-06-19T18:40:08.329Z,6.90
2023-06-19T18:42:36.483Z,7.40
2023-06-19T18:45:04.817Z,7.65
2023-06-19T18:47:32.816Z,7.22
2023-06-19T18:50:01.059Z,7.78
2023-06-19T18:54:58.365Z,6.72
2023-06-19T18:57:29.335Z,6.90
2023-06-19T18:59:58.113Z,7.43
2023-06-19T19:02:26.779Z,7.40
2023-06-19T19:04:55.857Z,6.97
2023-06-19T19:07:24.758Z,6.97
2023-06-19T19:09:55.178Z,7.40
2023-06-19T19:12:23.215Z,7.70
2023-06-19T19:14:51.225Z,7.47
2023-06-19T19:17:19.256Z,6.80
2023-06-19T19:19:47.273Z,7.07
2023-06-19T19:22:15.317Z,7.55
2023-06-19T19:24:43.372Z,6.97
2023-06-19T19:29:40.924Z,7.03
2023-06-19T19:34:36.950Z,6.60
2023-06-19T19:37:04.982Z,7.22
2023-06-19T19:39:35.568Z,7.03
2023-06-19T19:42:06.313Z,7.07
2023-06-19T19:44:35.652Z,7.30
2023-06-19T19:47:03.722Z,7.20
2023-06-19T19:49:31.682Z,7.30
2023-06-19T19:51:59.672Z,7.10
2023-06-19T19:54:27.736Z,6.43
2023-06-19T19:56:58.299Z,6.88
2023-06-19T19:59:29.387Z,6.78
2023-06-19T20:01:58.918Z,7.07
2023-06-19T20:04:27.006Z,7.45
2023-06-19T20:06:55.161Z,6.18
2023-06-19T20:09:23.216Z,6.10
2023-06-19T20:11:51.566Z,6.13
2023-06-19T20:14:19.841Z,6.18
2023-06-19T20:19:17.028Z,5.68
2023-06-19T20:21:45.001Z,5.93
2023-06-19T20:24:12.991Z,6.18
2023-06-19T20:26:41.061Z,5.32
2023-06-19T20:29:11.641Z,5.47
2023-06-19T20:31:39.897Z,6.03
2023-06-19T20:36:37.266Z,5.50
2023-06-19T20:39:07.005Z,5.22
2023-06-19T20:41:38.777Z,5.38
2023-06-19T20:44:06.946Z,5.70
2023-06-19T20:46:35.174Z,4.97
2023-06-19T20:51:30.954Z,5.70
2023-06-19T20:54:04.856Z,4.93
2023-06-19T20:56:32.832Z,5.20
2023-06-19T20:59:00.806Z,4.90
2023-06-19T21:01:29.281Z,4.90
2023-06-19T21:03:57.246Z,5.05
2023-06-19T21:06:26.503Z,5.22
2023-06-19T21:08:55.346Z,4.70
2023-06-19T21:11:24.791Z,4.75
2023-06-19T21:13:52.763Z,3.95
2023-06-19T21:16:20.754Z,4.82
2023-06-19T21:18:48.821Z,5.03
2023-06-19T21:21:16.789Z,5.05
2023-06-19T21:23:44.800Z,4.75
2023-06-19T21:26:12.805Z,4.40
2023-06-19T21:28:42.198Z,4.68
2023-06-19T21:31:11.377Z,4.50
2023-06-19T21:33:39.326Z,4.68
2023-06-19T21:36:08.021Z,5.25
2023-06-19T21:38:36.145Z,4.85
2023-06-19T21:41:04.436Z,5.00
2023-06-19T21:46:04.519Z,4.97
2023-06-19T21:48:32.532Z,4.68
2023-06-19T21:51:01.141Z,5.47
2023-06-19T21:53:29.421Z,4.75
2023-06-19T21:58:27.648Z,4.90
2023-06-19T22:01:00.597Z,5.15
2023-06-19T22:03:30.265Z,5.70
2023-06-19T22:05:58.396Z,4.90
2023-06-19T22:08:41.503Z,5.32
2023-06-19T22:11:10.473Z,5.10
2023-06-19T22:13:42.543Z,5.65
2023-06-19T22:16:10.709Z,5.50
2023-06-19T22:18:40.123Z,5.30
2023-06-19T22:21:08.103Z,5.18
2023-06-19T22:23:39.384Z,5.80
2023-06-19T22:26:07.440Z,5.68
2023-06-19T22:28:35.584Z,5.50
2023-06-19T22:31:03.630Z,5.70
2023-06-19T22:33:31.709Z,6.50
2023-06-19T22:36:01.051Z,6.25
2023-06-19T22:38:29.026Z,5.90
2023-06-19T22:40:57.734Z,6.30
2023-06-19T22:43:25.712Z,6.13
2023-06-19T22:45:55.602Z,5.68
2023-06-19T22:48:27.733Z,6.20
2023-06-19T22:50:56.006Z,5.90
2023-06-19T22:53:26.883Z,6.47
2023-06-19T22:55:55.148Z,6.43
2023-06-19T22:58:23.628Z,6.43
2023-06-19T23:00:51.615Z,6.45
2023-06-19T23:03:22.878Z,6.03
2023-06-19T23:05:50.976Z,6.13
2023-06-19T23:08:21.946Z,6.55
2023-06-19T23:10:51.407Z,6.47
2023-06-19T23:13:19.508Z,6.45
2023-06-19T23:15:47.524Z,6.03
2023-06-19T23:18:15.507Z,6.18
2023-06-19T23:20:43.480Z,6.30
2023-06-19T23:23:11.754Z,5.85
2023-06-19T23:25:39.762Z,6.03
2023-06-19T23:28:09.120Z,5.47
2023-06-19T23:30:37.085Z,5.53
2023-06-19T23:33:05.707Z,5.15
2023-06-19T23:35:33.781Z,5.18
2023-06-19T23:38:01.972Z,5.60
2023-06-19T23:40:31.007Z,5.30
2023-06-19T23:42:59.320Z,5.22
2023-06-19T23:47:56.847Z,5.75
2023-06-19T23:52:56.785Z,5.93
2023-06-19T23:55:24.950Z,6.03
2023-06-19T23:57:54.988Z,5.45
